Time;durP1;ratioP1;P1;durP2;ratioP2;P2;SDS_P1;SDS_P2;PMS_P1;PMS_P2;Temp;Humidity;BMP_temperature;BMP_pressure;BME280_temperature;BME280_humidity;BME280_pressure;Samples;Min_cycle;Max_cycle;Signal;HPM_P1;HPM_P2
2021/10/01 00:00:32;;;;;;;4.00;2.60;;;10.00;99.90;;;;;;5108939;27;20205;-71
2021/10/01 00:02:59;;;;;;;2.67;2.10;;;10.00;99.90;;;;;;5109973;27;20231;-72
2021/10/01 00:05:27;;;;;;;3.43;2.60;;;10.00;99.90;;;;;;5109658;27;20710;-71
2021/10/01 00:07:54;;;;;;;4.10;2.33;;;9.90;99.90;;;;;;5112778;27;20214;-72
2021/10/01 00:10:21;;;;;;;2.73;1.93;;;9.90;99.90;;;;;;5110523;27;20671;-72
2021/10/01 00:12:48;;;;;;;3.07;2.17;;;9.90;99.90;;;;;;5110196;27;20270;-72
2021/10/01 00:15:17;;;;;;;3.40;1.80;;;9.90;99.90;;;;;;5108689;27;20206;-71
2021/10/01 00:17:44;;;;;;;2.53;1.80;;;9.90;99.90;;;;;;5110260;28;20226;-71
2021/10/01 00:20:12;;;;;;;2.17;1.67;;;9.90;99.90;;;;;;5112601;27;20200;-71
2021/10/01 00:22:41;;;;;;;1.87;1.77;;;9.90;99.90;;;;;;5111369;27;20298;-71
2021/10/01 00:25:08;;;;;;;2.00;1.80;;;9.90;99.90;;;;;;5114007;27;20247;-71
2021/10/01 00:27:36;;;;;;;2.60;2.10;;;9.90;99.90;;;;;;5110236;27;20213;-71
2021/10/01 00:30:03;;;;;;;4.77;2.53;;;9.90;99.90;;;;;;5118083;27;20559;-71
2021/10/01 00:32:30;;;;;;;7.13;2.87;;;9.80;99.90;;;;;;5117241;27;20195;-71
2021/10/01 00:34:57;;;;;;;4.07;2.50;;;9.80;99.90;;;;;;5117764;27;20202;-71
2021/10/01 00:37:24;;;;;;;2.10;1.83;;;9.70;99.90;;;;;;5116198;27;20209;-72
2021/10/01 00:39:53;;;;;;;2.53;2.00;;;9.70;99.90;;;;;;5109538;27;20199;-72
2021/10/01 00:42:21;;;;;;;4.90;2.27;;;9.70;99.90;;;;;;5108732;28;20205;-72
2021/10/01 00:44:49;;;;;;;3.23;1.93;;;9.70;99.90;;;;;;5106753;27;20202;-72
2021/10/01 00:47:16;;;;;;;3.13;1.97;;;9.70;99.90;;;;;;5108931;28;20321;-71
2021/10/01 00:49:43;;;;;;;2.27;1.93;;;9.70;99.90;;;;;;5108541;28;20570;-71
2021/10/01 00:52:11;;;;;;;2.00;1.90;;;9.70;99.90;;;;;;5106765;28;20305;-71
2021/10/01 00:54:38;;;;;;;3.23;1.70;;;9.70;99.90;;;;;;5107525;28;20204;-72
2021/10/01 00:57:06;;;;;;;2.20;1.90;;;9.60;99.90;;;;;;5107865;28;20209;-71
2021/10/01 00:59:33;;;;;;;3.63;2.47;;;9.60;99.90;;;;;;5106705;28;20208;-71
2021/10/01 01:02:01;;;;;;;3.23;2.20;;;9.60;99.90;;;;;;5107591;27;20319;-71
2021/10/01 01:04:28;;;;;;;2.50;2.17;;;9.60;99.90;;;;;;5101924;27;20284;-71
2021/10/01 01:07:00;;;;;;;2.30;2.10;;;9.60;99.90;;;;;;5112873;27;20221;-72
2021/10/01 01:09:39;;;;;;;2.13;1.90;;;9.60;99.90;;;;;;5110733;27;20289;-71
2021/10/01 01:12:22;;;;;;;2.87;2.30;;;9.50;99.90;;;;;;5105246;28;20721;-71
2021/10/01 01:14:55;;;;;;;4.33;2.23;;;9.50;99.90;;;;;;5105892;28;20200;-71
2021/10/01 01:17:27;;;;;;;2.13;1.80;;;9.50;99.90;;;;;;5113120;27;20258;-71
2021/10/01 01:20:07;;;;;;;3.00;2.10;;;9.50;99.90;;;;;;5111636;27;20211;-71
2021/10/01 01:22:42;;;;;;;2.30;2.10;;;9.40;99.90;;;;;;5112334;27;20213;-71
2021/10/01 01:25:43;;;;;;;2.30;2.10;;;9.40;99.90;;;;;;5106865;28;20205;-71
2021/10/01 01:28:13;;;;;;;2.27;2.07;;;9.30;99.90;;;;;;5107205;28;20697;-71
2021/10/01 01:30:46;;;;;;;3.37;2.40;;;9.30;99.90;;;;;;5113316;27;20265;-71
2021/10/01 01:33:21;;;;;;;2.47;2.13;;;9.20;99.90;;;;;;5111508;27;20202;-71
2021/10/01 01:35:52;;;;;;;3.17;1.97;;;9.20;99.90;;;;;;5109472;28;20261;-71
2021/10/01 01:38:27;;;;;;;3.30;2.00;;;9.10;99.90;;;;;;5108236;28;20207;-71
2021/10/01 01:41:03;;;;;;;3.27;2.50;;;9.10;99.90;;;;;;5106667;28;20233;-71
2021/10/01 01:43:32;;;;;;;3.87;2.63;;;9.10;99.90;;;;;;5106973;28;20528;-71
2021/10/01 01:46:01;;;;;;;5.07;3.00;;;9.00;99.90;;;;;;5106735;28;20609;-71
2021/10/01 01:48:32;;;;;;;3.23;2.70;;;8.90;99.90;;;;;;5109078;28;20203;-71
2021/10/01 01:51:01;;;;;;;2.87;2.57;;;8.90;99.90;;;;;;5107836;28;20311;-71
2021/10/01 01:53:30;;;;;;;4.43;2.90;;;8.80;99.90;;;;;;5106270;28;20714;-71
2021/10/01 01:55:59;;;;;;;3.43;2.70;;;8.80;99.90;;;;;;5095064;28;20207;-71
2021/10/01 01:58:26;;;;;;;2.60;2.20;;;8.80;99.90;;;;;;5107907;27;20695;-71
2021/10/01 02:01:26;;;;;;;4.00;2.50;;;8.80;99.90;;;;;;5090670;28;20203;-72
2021/10/01 02:04:11;;;;;;;2.47;2.00;;;8.80;99.90;;;;;;5105996;28;20204;-71
2021/10/01 02:06:38;;;;;;;2.53;2.23;;;8.80;99.90;;;;;;5106833;28;20239;-71
2021/10/01 02:09:06;;;;;;;3.67;2.40;;;8.90;99.90;;;;;;5107024;28;20518;-71
2021/10/01 02:11:39;;;;;;;2.87;2.10;;;8.90;99.90;;;;;;5110980;28;20327;-72
2021/10/01 02:14:08;;;;;;;2.80;2.20;;;8.90;99.90;;;;;;5097313;28;20296;-72
2021/10/01 02:16:36;;;;;;;3.67;2.00;;;8.80;99.90;;;;;;5111096;28;20227;-71
2021/10/01 02:19:05;;;;;;;1.77;1.67;;;8.80;99.90;;;;;;5099057;28;20231;-72
2021/10/01 02:21:35;;;;;;;2.10;1.87;;;8.80;99.90;;;;;;5107086;28;20200;-71
2021/10/01 02:24:03;;;;;;;2.40;2.10;;;8.80;99.90;;;;;;5099806;28;20676;-72
2021/10/01 02:26:37;;;;;;;5.47;1.97;;;8.80;99.90;;;;;;5122925;27;20247;-71
2021/10/01 02:29:11;;;;;;;2.13;1.60;;;8.80;99.90;;;;;;5111926;28;20298;-71
2021/10/01 02:31:49;;;;;;;2.40;1.80;;;8.80;99.90;;;;;;5107255;28;20293;-72
2021/10/01 02:34:19;;;;;;;2.10;1.90;;;8.80;99.90;;;;;;5113834;28;20290;-71
2021/10/01 02:36:50;;;;;;;2.53;1.90;;;8.80;99.90;;;;;;5106672;28;20276;-71
2021/10/01 02:39:17;;;;;;;2.93;2.00;;;8.70;99.90;;;;;;5107528;28;20628;-71
2021/10/01 02:41:44;;;;;;;2.23;1.67;;;8.70;99.90;;;;;;5110596;27;20306;-71
2021/10/01 02:44:12;;;;;;;2.50;2.30;;;8.70;99.90;;;;;;5109082;28;20203;-71
2021/10/01 02:46:39;;;;;;;2.67;1.97;;;8.70;99.90;;;;;;5112000;27;20199;-72
2021/10/01 02:49:06;;;;;;;2.60;1.80;;;8.70;99.90;;;;;;5111139;28;20206;-71
2021/10/01 02:51:41;;;;;;;2.27;1.70;;;8.70;99.90;;;;;;5111351;28;20274;-71
2021/10/01 02:54:13;;;;;;;2.37;1.70;;;8.70;99.90;;;;;;5111013;27;20295;-71
2021/10/01 02:56:47;;;;;;;1.77;1.63;;;8.70;99.90;;;;;;5110113;28;20248;-71
2021/10/01 02:59:15;;;;;;;2.63;1.90;;;8.70;99.90;;;;;;5111964;27;20204;-72
2021/10/01 03:01:46;;;;;;;2.47;1.60;;;8.70;99.90;;;;;;5113811;27;20346;-71
2021/10/01 03:04:15;;;;;;;1.87;1.60;;;8.70;99.90;;;;;;5103286;27;20619;-72
2021/10/01 03:06:46;;;;;;;2.17;1.87;;;8.60;99.90;;;;;;5110542;28;20202;-71
2021/10/01 03:09:16;;;;;;;2.40;2.00;;;8.60;99.90;;;;;;5105855;27;21083;-71
2021/10/01 03:11:45;;;;;;;1.90;1.70;;;8.60;99.90;;;;;;5118623;27;20206;-71
2021/10/01 03:14:14;;;;;;;1.80;1.70;;;8.60;99.90;;;;;;5108530;27;20205;-80
2021/10/01 03:16:43;;;;;;;3.07;2.10;;;8.50;99.90;;;;;;5115067;27;20207;-80
2021/10/01 03:19:12;;;;;;;1.77;1.67;;;8.50;99.90;;;;;;5110126;27;20199;-80
2021/10/01 03:21:41;;;;;;;2.17;1.97;;;8.50;99.90;;;;;;5114592;27;20299;-80
2021/10/01 03:24:10;;;;;;;4.47;1.80;;;8.50;99.90;;;;;;5109779;28;20295;-80
2021/10/01 03:26:38;;;;;;;2.23;1.90;;;8.40;99.90;;;;;;5109114;28;20302;-80
2021/10/01 03:29:06;;;;;;;2.33;2.07;;;8.40;99.90;;;;;;5110209;27;20666;-80
2021/10/01 03:31:37;;;;;;;4.37;2.30;;;8.40;99.90;;;;;;5114659;27;20220;-80
2021/10/01 03:34:06;;;;;;;1.87;1.77;;;8.40;99.90;;;;;;5109310;28;20249;-80
2021/10/01 03:36:34;;;;;;;4.83;2.27;;;8.30;99.90;;;;;;5110960;28;20199;-80
2021/10/01 03:39:03;;;;;;;2.60;1.90;;;8.30;99.90;;;;;;5122273;27;20212;-81
2021/10/01 03:41:31;;;;;;;1.80;1.70;;;8.30;99.90;;;;;;5109074;27;20249;-80
2021/10/01 03:43:59;;;;;;;2.43;2.00;;;8.30;99.90;;;;;;5109136;27;20195;-80
2021/10/01 03:46:26;;;;;;;4.20;2.90;;;8.30;99.90;;;;;;5109531;28;20582;-80
2021/10/01 03:48:54;;;;;;;3.00;2.00;;;8.20;99.90;;;;;;5111080;27;20249;-80
2021/10/01 03:51:23;;;;;;;4.00;2.40;;;8.20;99.90;;;;;;5109415;28;20220;-80
2021/10/01 03:53:50;;;;;;;5.17;2.50;;;8.10;99.90;;;;;;5109678;27;20207;-80
2021/10/01 03:56:18;;;;;;;5.30;2.37;;;8.10;99.90;;;;;;5108336;28;20206;-80
2021/10/01 03:58:46;;;;;;;2.27;2.07;;;8.00;99.90;;;;;;5109470;28;20287;-80
2021/10/01 04:01:14;;;;;;;2.53;2.30;;;8.00;99.90;;;;;;5111226;27;20206;-80
2021/10/01 04:03:41;;;;;;;2.27;1.93;;;8.00;99.90;;;;;;5109410;28;20314;-80
2021/10/01 04:06:09;;;;;;;3.03;1.97;;;8.00;99.90;;;;;;5109146;28;20276;-80
2021/10/01 04:08:36;;;;;;;3.60;2.47;;;8.00;99.90;;;;;;5111670;27;20209;-80
2021/10/01 04:11:04;;;;;;;3.00;2.00;;;8.00;99.90;;;;;;5108794;28;20245;-80
2021/10/01 04:13:31;;;;;;;3.47;2.10;;;8.00;99.90;;;;;;5111229;27;20191;-80
2021/10/01 04:15:58;;;;;;;2.17;1.87;;;7.90;99.90;;;;;;5108223;28;20238;-80
2021/10/01 04:18:27;;;;;;;3.73;2.03;;;7.90;99.90;;;;;;5108881;28;20220;-80
2021/10/01 04:20:54;;;;;;;3.13;2.30;;;7.80;99.90;;;;;;5108781;28;20204;-80
2021/10/01 04:23:21;;;;;;;3.23;2.27;;;7.80;99.90;;;;;;5117974;27;20214;-80
2021/10/01 04:25:51;;;;;;;2.87;1.87;;;7.80;99.90;;;;;;5109329;28;20671;-80
2021/10/01 04:28:20;;;;;;;3.93;2.00;;;7.80;99.90;;;;;;5112806;27;20207;-80
2021/10/01 04:30:53;;;;;;;2.17;1.97;;;7.80;99.90;;;;;;5108660;28;20720;-80
2021/10/01 04:33:24;;;;;;;1.93;1.70;;;7.80;99.90;;;;;;5105141;28;20261;-80
2021/10/01 04:35:55;;;;;;;2.30;1.83;;;7.80;99.90;;;;;;5108326;28;20299;-80
2021/10/01 04:38:23;;;;;;;2.23;1.80;;;7.80;99.90;;;;;;5113963;27;20282;-80
2021/10/01 04:40:51;;;;;;;4.03;2.70;;;7.80;99.90;;;;;;5107985;28;20184;-81
2021/10/01 04:43:19;;;;;;;2.10;1.90;;;7.70;99.90;;;;;;5108540;27;20209;-80
2021/10/01 04:46:22;;;;;;;2.77;1.83;;;7.70;99.90;;;;;;5065962;28;20266;-80
2021/10/01 04:48:51;;;;;;;2.60;1.90;;;7.70;99.90;;;;;;5051948;28;20307;-80
2021/10/01 04:51:24;;;;;;;2.40;1.50;;;7.70;99.90;;;;;;5050471;28;20228;-80
2021/10/01 04:53:52;;;;;;;1.63;1.53;;;7.70;99.90;;;;;;5050755;28;20322;-80
2021/10/01 04:56:20;;;;;;;2.63;1.77;;;7.70;99.90;;;;;;5048812;28;20258;-80
2021/10/01 04:58:48;;;;;;;3.27;2.00;;;7.70;99.90;;;;;;5051618;28;20274;-80
2021/10/01 05:01:33;;;;;;;2.60;1.63;;;7.70;99.90;;;;;;5069144;28;20617;-80
2021/10/01 05:04:24;;;;;;;2.50;2.00;;;7.70;99.90;;;;;;5059430;28;20269;-80
2021/10/01 05:07:19;;;;;;;2.10;1.70;;;7.70;99.90;;;;;;5051802;28;20237;-81
2021/10/01 05:10:05;;;;;;;2.73;2.10;;;7.80;99.90;;;;;;5069244;28;20658;-81
2021/10/01 05:12:51;;;;;;;3.60;2.20;;;7.80;99.90;;;;;;5066990;28;20224;-80
2021/10/01 05:15:38;;;;;;;4.10;2.17;;;7.80;99.90;;;;;;5063824;28;20349;-80
2021/10/01 05:18:24;;;;;;;3.20;2.00;;;7.80;99.90;;;;;;5065937;28;20212;-80
2021/10/01 05:20:52;;;;;;;2.60;2.20;;;7.90;99.90;;;;;;5090294;28;20690;-80
2021/10/01 05:23:42;;;;;;;3.77;2.30;;;7.80;99.90;;;;;;5115329;27;20210;-80
2021/10/01 05:26:09;;;;;;;4.53;2.43;;;7.80;99.90;;;;;;5106454;28;20543;-80
2021/10/01 05:28:37;;;;;;;3.03;2.27;;;7.80;99.90;;;;;;5106901;28;20287;-80
2021/10/01 05:31:04;;;;;;;2.27;1.97;;;7.90;99.90;;;;;;5106838;28;20298;-80
2021/10/01 05:33:32;;;;;;;2.10;1.87;;;7.90;99.90;;;;;;5114230;27;20206;-80
2021/10/01 05:35:59;;;;;;;3.47;1.93;;;7.90;99.90;;;;;;5113370;27;20219;-79
2021/10/01 05:38:29;;;;;;;3.20;2.27;;;7.90;99.90;;;;;;5115474;27;20199;-80
2021/10/01 05:40:59;;;;;;;2.10;1.90;;;8.00;99.90;;;;;;5109034;27;20289;-79
2021/10/01 05:43:26;;;;;;;3.47;2.33;;;8.00;99.90;;;;;;5107100;28;20210;-80
2021/10/01 05:45:55;;;;;;;2.70;2.23;;;8.00;99.90;;;;;;5106913;28;20209;-81
2021/10/01 05:48:31;;;;;;;3.37;2.30;;;8.00;99.90;;;;;;5108383;28;20210;-80
2021/10/01 05:51:16;;;;;;;4.97;2.50;;;8.00;99.90;;;;;;5098336;28;20732;-80
2021/10/01 05:54:13;;;;;;;3.93;2.60;;;8.10;99.90;;;;;;5110588;28;20329;-80
2021/10/01 05:57:01;;;;;;;4.37;2.50;;;8.00;99.90;;;;;;5109832;27;20206;-79
2021/10/01 05:59:38;;;;;;;7.47;3.20;;;8.10;99.90;;;;;;5106334;28;20765;-79
2021/10/01 06:02:06;;;;;;;3.63;2.83;;;8.10;99.90;;;;;;5107535;28;20345;-79
2021/10/01 06:04:33;;;;;;;4.10;2.80;;;8.10;99.90;;;;;;5107586;28;20315;-79
2021/10/01 06:07:00;;;;;;;3.47;2.03;;;8.20;99.90;;;;;;5110525;28;20249;-80
2021/10/01 06:09:27;;;;;;;3.07;2.30;;;8.20;99.90;;;;;;5108185;28;20617;-79
2021/10/01 06:11:54;;;;;;;3.77;2.50;;;8.30;99.90;;;;;;5111926;27;20219;-79
2021/10/01 06:14:23;;;;;;;4.10;2.20;;;8.40;99.90;;;;;;5107162;28;20247;-79
2021/10/01 06:16:51;;;;;;;2.80;2.27;;;8.50;99.90;;;;;;5107350;28;20203;-79
2021/10/01 06:19:18;;;;;;;2.10;1.90;;;8.60;99.90;;;;;;5107325;28;20204;-80
2021/10/01 06:21:45;;;;;;;3.03;2.00;;;8.70;99.90;;;;;;5102166;28;20565;-77
2021/10/01 06:24:12;;;;;;;2.33;1.97;;;8.80;99.90;;;;;;5095861;28;20215;-79
2021/10/01 06:26:40;;;;;;;3.07;2.23;;;8.90;99.90;;;;;;5098317;28;20279;-77
2021/10/01 06:29:07;;;;;;;2.67;2.47;;;9.00;99.90;;;;;;5108389;27;20211;-78
2021/10/01 06:31:35;;;;;;;2.97;2.23;;;9.10;99.90;;;;;;5101807;28;20607;-77
2021/10/01 06:34:02;;;;;;;3.60;2.40;;;9.20;99.90;;;;;;5116663;27;20686;-76
2021/10/01 06:36:29;;;;;;;3.53;2.33;;;9.50;99.90;;;;;;5102023;28;20272;-80
2021/10/01 06:38:56;;;;;;;2.93;2.33;;;10.40;99.90;;;;;;5111728;28;20189;-78
2021/10/01 06:41:23;;;;;;;4.40;2.20;;;11.60;99.90;;;;;;5100823;28;20195;-79
2021/10/01 06:43:56;;;;;;;2.37;2.17;;;12.90;99.90;;;;;;5103079;28;20208;-80
2021/10/01 06:46:34;;;;;;;2.20;2.00;;;14.00;99.90;;;;;;5102335;28;20238;-80
2021/10/01 06:49:15;;;;;;;3.53;2.00;;;15.10;99.90;;;;;;5101923;28;20632;-79
2021/10/01 06:51:59;;;;;;;3.47;2.20;;;15.90;99.90;;;;;;5102528;28;20664;-78
2021/10/01 08:19:34;;;;;;;4.30;3.15;;;30.80;46.80;;;;;;5101817;28;20222;-81
2021/10/01 08:22:02;;;;;;;3.40;3.10;;;31.10;45.90;;;;;;5106261;28;20203;-80
2021/10/01 08:24:29;;;;;;;2.97;2.78;;;31.40;45.00;;;;;;5115436;27;20200;-78
2021/10/01 08:26:59;;;;;;;6.68;3.22;;;31.60;44.30;;;;;;5106881;27;20211;-80
2021/10/01 08:29:26;;;;;;;5.20;3.35;;;32.00;43.80;;;;;;5105095;27;20623;-79
2021/10/01 08:32:00;;;;;;;4.53;3.40;;;32.20;42.10;;;;;;5104651;27;20222;-80
2021/10/01 08:34:28;;;;;;;3.13;2.80;;;32.50;41.70;;;;;;5101230;27;20789;-76
2021/10/01 08:36:55;;;;;;;3.80;3.40;;;32.40;40.70;;;;;;5103744;28;20203;-76
2021/10/01 08:39:22;;;;;;;3.25;2.95;;;32.50;40.40;;;;;;5105735;27;20196;-77
2021/10/01 08:41:50;;;;;;;5.82;3.45;;;32.60;40.30;;;;;;5104796;28;20619;-78
2021/10/01 08:44:19;;;;;;;4.13;3.22;;;32.90;40.00;;;;;;5103633;27;20202;-77
2021/10/01 08:46:48;;;;;;;3.63;3.10;;;33.30;39.60;;;;;;5114987;27;20531;-77
2021/10/01 08:49:16;;;;;;;3.50;3.20;;;33.70;40.00;;;;;;5103709;27;20211;-77
2021/10/01 08:51:44;;;;;;;5.88;4.05;;;34.10;38.40;;;;;;5107676;27;20226;-78
2021/10/01 08:54:12;;;;;;;3.15;2.85;;;34.40;37.30;;;;;;5104408;27;20192;-77
2021/10/01 08:56:39;;;;;;;3.42;3.13;;;34.80;36.80;;;;;;5105571;27;20192;-78
2021/10/01 08:59:06;;;;;;;7.93;3.42;;;35.30;36.20;;;;;;5102387;28;20673;-77
2021/10/01 09:01:35;;;;;;;3.22;2.70;;;35.70;35.30;;;;;;5103982;28;20354;-76
2021/10/01 09:04:04;;;;;;;3.67;3.38;;;35.90;34.90;;;;;;5104066;27;20196;-78
2021/10/01 09:06:32;;;;;;;2.90;2.70;;;35.80;34.10;;;;;;5108499;27;20440;-77
2021/10/01 09:09:04;;;;;;;2.58;2.38;;;35.60;33.80;;;;;;5100014;27;20200;-77
2021/10/01 09:11:34;;;;;;;3.28;2.90;;;35.70;33.80;;;;;;5100504;27;20582;-76
2021/10/01 09:14:03;;;;;;;2.87;2.57;;;35.70;33.50;;;;;;5103753;27;20423;-76
2021/10/01 09:16:31;;;;;;;3.95;2.92;;;35.70;33.50;;;;;;5105058;27;20286;-76
2021/10/01 09:19:00;;;;;;;2.90;2.70;;;35.70;33.80;;;;;;5105693;27;20488;-77
2021/10/01 09:21:30;;;;;;;2.95;2.75;;;35.30;33.00;;;;;;5105626;27;20703;-75
2021/10/01 09:24:00;;;;;;;2.70;2.50;;;34.90;33.30;;;;;;5102430;27;20198;-77
2021/10/01 09:26:29;;;;;;;2.97;2.75;;;34.60;33.60;;;;;;5103316;27;20199;-75
2021/10/01 09:28:58;;;;;;;3.20;2.90;;;34.30;33.40;;;;;;5104731;27;20194;-77
2021/10/01 09:31:38;;;;;;;3.15;2.80;;;34.30;33.40;;;;;;5114918;27;20219;-77
2021/10/01 09:34:09;;;;;;;4.78;3.22;;;34.50;33.50;;;;;;5107039;27;20227;-77
2021/10/01 09:36:37;;;;;;;2.95;2.75;;;34.70;33.20;;;;;;5108694;27;20431;-77
2021/10/01 09:39:06;;;;;;;4.07;3.25;;;34.90;32.60;;;;;;5101630;28;20195;-77
2021/10/01 09:41:35;;;;;;;4.03;3.05;;;35.00;32.60;;;;;;5096910;28;20442;-76
2021/10/01 09:44:08;;;;;;;2.55;2.35;;;35.10;32.00;;;;;;5101571;27;20208;-77
2021/10/01 09:46:41;;;;;;;2.85;2.70;;;35.00;32.70;;;;;;5107311;27;20243;-77
2021/10/01 09:49:10;;;;;;;3.75;2.83;;;35.00;32.00;;;;;;5100701;27;20612;-76
2021/10/01 09:51:39;;;;;;;5.20;2.90;;;34.90;31.80;;;;;;5103853;27;20440;-78
2021/10/01 09:54:14;;;;;;;2.47;2.33;;;34.90;31.90;;;;;;5099801;27;20853;-77
2021/10/01 09:56:42;;;;;;;2.63;2.28;;;34.90;31.80;;;;;;5104153;27;20248;-78
2021/10/01 09:59:12;;;;;;;3.13;2.70;;;35.00;31.60;;;;;;5104582;27;20192;-78
2021/10/01 10:02:03;;;;;;;3.42;2.47;;;35.20;31.60;;;;;;5106040;27;20594;-78
2021/10/01 10:04:34;;;;;;;2.78;2.55;;;35.30;31.40;;;;;;5101246;28;20262;-77
2021/10/01 10:07:15;;;;;;;2.67;2.47;;;35.50;31.20;;;;;;5099996;28;20196;-78
2021/10/01 10:09:45;;;;;;;2.45;2.25;;;35.50;31.00;;;;;;5102839;28;20207;-77
2021/10/01 10:12:17;;;;;;;2.55;2.38;;;35.60;30.90;;;;;;5100721;28;20208;-77
2021/10/01 10:14:50;;;;;;;3.90;2.05;;;35.70;30.70;;;;;;5101704;28;20223;-78
2021/10/01 10:17:20;;;;;;;3.10;2.42;;;35.60;30.20;;;;;;5100150;28;20252;-77
2021/10/01 10:19:49;;;;;;;3.03;2.67;;;35.50;30.20;;;;;;5104549;28;20191;-76
2021/10/01 10:22:16;;;;;;;2.30;2.20;;;35.50;30.00;;;;;;5104003;28;20656;-79
2021/10/01 10:24:44;;;;;;;2.50;2.30;;;35.50;30.00;;;;;;5102466;28;20457;-76
2021/10/01 10:27:11;;;;;;;3.58;2.60;;;35.20;29.90;;;;;;5104755;28;20293;-77
2021/10/01 10:29:40;;;;;;;3.80;2.92;;;35.20;30.00;;;;;;5096745;28;20208;-75
2021/10/01 10:32:10;;;;;;;2.90;2.70;;;35.20;30.00;;;;;;5104586;28;20220;-75
2021/10/01 10:34:47;;;;;;;3.60;2.47;;;35.20;30.00;;;;;;5104483;28;20192;-77
2021/10/01 10:37:16;;;;;;;3.80;2.83;;;35.00;29.70;;;;;;5098765;28;20215;-77
2021/10/01 10:39:46;;;;;;;2.70;2.50;;;34.80;29.80;;;;;;5100553;28;20206;-79
2021/10/01 10:42:15;;;;;;;2.58;2.38;;;34.60;29.90;;;;;;5102237;28;20200;-78
2021/10/01 10:44:46;;;;;;;2.30;2.10;;;34.40;30.00;;;;;;5102951;28;20714;-80
2021/10/01 10:47:39;;;;;;;3.08;2.05;;;34.30;30.20;;;;;;5101174;28;20246;-78
2021/10/01 10:50:39;;;;;;;2.25;2.05;;;34.30;30.00;;;;;;5101711;28;20677;-80
2021/10/01 10:53:41;;;;;;;2.08;1.98;;;34.30;29.80;;;;;;5094842;28;20719;-79
2021/10/01 10:56:17;;;;;;;2.35;2.15;;;33.90;29.70;;;;;;5063730;28;20235;-79
2021/10/01 10:58:46;;;;;;;2.30;1.77;;;33.60;30.00;;;;;;5078152;28;20228;-79
2021/10/01 11:01:34;;;;;;;2.17;1.98;;;33.60;30.00;;;;;;5064319;28;20655;-82
2021/10/01 11:04:27;;;;;;;1.92;1.60;;;33.50;30.00;;;;;;5077030;28;20211;-80
2021/10/01 11:06:54;;;;;;;1.52;1.48;;;33.40;30.10;;;;;;5090631;28;20571;-79
2021/10/01 11:09:28;;;;;;;1.95;1.85;;;33.40;30.30;;;;;;5068589;28;20196;-80
2021/10/01 11:11:58;;;;;;;2.38;2.22;;;33.60;30.30;;;;;;5075820;28;20809;-80
2021/10/01 11:14:28;;;;;;;2.20;2.03;;;33.50;30.00;;;;;;5070866;28;20208;-80
2021/10/01 11:17:20;;;;;;;2.38;2.17;;;33.30;30.00;;;;;;5069956;28;20289;-79
2021/10/01 11:19:53;;;;;;;1.98;1.88;;;32.70;30.10;;;;;;5083541;28;20201;-79
2021/10/01 11:22:32;;;;;;;1.80;1.70;;;32.20;30.50;;;;;;5084705;28;20828;-78
2021/10/01 11:25:12;;;;;;;2.45;2.25;;;31.80;30.60;;;;;;5066286;28;20200;-81
2021/10/01 11:27:54;;;;;;;2.40;2.20;;;31.40;30.70;;;;;;5061516;28;20253;-78
2021/10/01 11:30:21;;;;;;;2.40;2.20;;;31.10;31.10;;;;;;5098937;27;20836;-80
2021/10/01 11:32:49;;;;;;;4.10;2.35;;;30.90;31.00;;;;;;5107573;27;20675;-81
2021/10/01 11:35:17;;;;;;;3.28;2.00;;;30.90;31.10;;;;;;5104576;28;20652;-80
2021/10/01 11:37:47;;;;;;;3.45;2.00;;;30.90;31.20;;;;;;5106479;28;20575;-80
2021/10/01 11:40:22;;;;;;;2.03;1.83;;;30.80;31.20;;;;;;5100265;28;21003;-81
2021/10/01 11:42:51;;;;;;;1.88;1.77;;;30.60;31.50;;;;;;5105705;28;20200;-81
2021/10/01 11:45:21;;;;;;;1.80;1.70;;;30.30;31.70;;;;;;5102227;28;20191;-77
2021/10/01 11:47:55;;;;;;;1.70;1.60;;;29.90;32.20;;;;;;5095346;28;20888;-78
2021/10/01 11:50:33;;;;;;;1.95;1.83;;;29.40;32.70;;;;;;5108767;27;20664;-77
2021/10/01 11:53:02;;;;;;;2.15;1.70;;;28.90;33.20;;;;;;5107499;28;20361;-79
2021/10/01 11:55:33;;;;;;;2.13;1.77;;;28.30;33.60;;;;;;5106520;28;20265;-77
2021/10/01 11:58:00;;;;;;;1.67;1.55;;;27.90;34.10;;;;;;5107549;27;20200;-78
2021/10/01 12:00:27;;;;;;;2.10;1.90;;;27.30;34.20;;;;;;5102878;27;20555;-78
2021/10/01 12:02:55;;;;;;;1.77;1.50;;;26.70;34.80;;;;;;5106234;27;20280;-77
2021/10/01 12:05:30;;;;;;;1.50;1.40;;;26.20;35.40;;;;;;5109608;27;20205;-79
2021/10/01 12:08:00;;;;;;;2.25;1.92;;;25.60;35.80;;;;;;5105881;28;20203;-79
2021/10/01 12:10:29;;;;;;;2.60;2.03;;;25.30;36.30;;;;;;5104983;28;20188;-77
2021/10/01 12:13:09;;;;;;;4.68;2.75;;;25.00;36.50;;;;;;5107497;27;20221;-78
2021/10/01 12:15:42;;;;;;;1.67;1.58;;;24.60;36.70;;;;;;5103809;27;20222;-80
2021/10/01 12:18:26;;;;;;;1.83;1.52;;;24.30;37.00;;;;;;5109508;27;20674;-79
2021/10/01 12:20:55;;;;;;;2.28;1.90;;;24.10;37.60;;;;;;5105771;28;20199;-78
2021/10/01 12:23:24;;;;;;;2.38;1.70;;;23.70;38.00;;;;;;5106698;27;20594;-79
2021/10/01 12:25:53;;;;;;;1.70;1.60;;;23.50;38.70;;;;;;5108179;27;20204;-79
2021/10/01 12:28:23;;;;;;;2.45;2.25;;;23.20;38.90;;;;;;5108321;27;20200;-78
2021/10/01 12:31:01;;;;;;;2.83;2.00;;;23.10;39.30;;;;;;5102005;28;20215;-81
2021/10/01 12:33:29;;;;;;;2.30;2.03;;;22.90;39.50;;;;;;5105577;28;20223;-80
2021/10/01 12:35:56;;;;;;;4.20;2.20;;;22.80;40.00;;;;;;5104640;28;20198;-79
2021/10/01 12:38:24;;;;;;;1.63;1.52;;;22.60;40.30;;;;;;5109444;27;20199;-80
2021/10/01 12:41:13;;;;;;;1.75;1.65;;;22.40;40.50;;;;;;5103381;28;20219;-78
2021/10/01 12:43:47;;;;;;;4.25;2.10;;;22.20;40.50;;;;;;5102018;28;20234;-79
2021/10/01 12:46:38;;;;;;;9.73;1.90;;;22.10;40.80;;;;;;5104164;27;20203;-78
2021/10/01 12:49:22;;;;;;;2.95;1.70;;;22.00;40.90;;;;;;5103775;27;20211;-78
2021/10/01 12:52:08;;;;;;;1.67;1.50;;;21.90;41.00;;;;;;5101695;27;20203;-78
2021/10/01 12:54:37;;;;;;;1.55;1.45;;;21.80;41.20;;;;;;5098197;28;20199;-78
2021/10/01 12:57:26;;;;;;;1.70;1.60;;;21.70;41.40;;;;;;5104931;27;20218;-78
2021/10/01 12:59:56;;;;;;;1.52;1.35;;;21.50;41.60;;;;;;5102847;28;20211;-82
2021/10/01 13:02:25;;;;;;;1.83;1.60;;;21.50;42.10;;;;;;5105590;28;20280;-80
2021/10/01 13:04:59;;;;;;;1.52;1.38;;;21.40;42.20;;;;;;5102962;28;20205;-81
2021/10/01 13:07:35;;;;;;;2.15;1.20;;;21.30;42.20;;;;;;5104118;27;20245;-80
2021/10/01 13:10:20;;;;;;;1.38;1.27;;;21.20;42.30;;;;;;5101487;27;20226;-77
2021/10/01 13:12:49;;;;;;;2.03;1.50;;;21.10;42.70;;;;;;5116884;27;20359;-79
2021/10/01 13:15:24;;;;;;;1.38;1.27;;;21.00;42.90;;;;;;5102349;28;20264;-79
2021/10/01 13:18:09;;;;;;;2.05;1.42;;;20.90;43.30;;;;;;5105064;27;20593;-77
2021/10/01 13:20:39;;;;;;;1.80;1.70;;;20.90;43.30;;;;;;5104026;28;20219;-78
2021/10/01 13:23:08;;;;;;;3.90;3.50;;;20.80;43.40;;;;;;5107910;27;21017;-77
2021/10/01 13:25:37;;;;;;;2.33;2.05;;;20.70;43.40;;;;;;5101687;28;20203;-78
2021/10/01 13:28:06;;;;;;;1.50;1.40;;;20.70;43.50;;;;;;5104815;28;20203;-79
2021/10/01 13:30:35;;;;;;;3.65;1.25;;;20.60;43.50;;;;;;5104549;28;20191;-83
2021/10/01 13:33:03;;;;;;;2.90;1.50;;;20.50;43.40;;;;;;5103746;28;20304;-79
2021/10/01 13:35:30;;;;;;;1.08;0.98;;;20.40;43.20;;;;;;5103636;28;20207;-80
2021/10/01 13:37:59;;;;;;;1.63;1.17;;;20.30;43.20;;;;;;5101897;28;20200;-81
2021/10/01 13:40:27;;;;;;;1.73;1.10;;;20.20;43.30;;;;;;5102767;27;20529;-79
2021/10/01 13:42:56;;;;;;;1.67;1.00;;;20.20;43.40;;;;;;5102498;27;20196;-80
2021/10/01 13:45:57;;;;;;;1.10;1.00;;;21.10;44.20;;;;;;5103039;27;20198;-81
2021/10/01 13:48:44;;;;;;;0.85;0.85;;;20.20;43.20;;;;;;5101019;27;20434;-79
2021/10/01 13:51:14;;;;;;;0.88;0.88;;;20.30;43.30;;;;;;5103784;28;20199;-79
2021/10/01 13:54:05;;;;;;;1.42;1.33;;;20.20;43.60;;;;;;5101494;28;20702;-80
2021/10/01 13:56:41;;;;;;;1.55;1.45;;;20.20;43.50;;;;;;5103423;27;20195;-80
2021/10/01 13:59:12;;;;;;;5.32;1.50;;;20.00;43.70;;;;;;5100550;28;20675;-80
2021/10/01 14:01:40;;;;;;;1.60;1.50;;;19.90;43.90;;;;;;5098628;28;20680;-78
2021/10/01 14:04:18;;;;;;;1.40;1.30;;;19.80;44.00;;;;;;5103969;28;20429;-78
2021/10/01 14:06:49;;;;;;;1.70;1.30;;;19.70;44.00;;;;;;5101073;27;20694;-80
2021/10/01 14:09:16;;;;;;;1.40;1.20;;;19.70;44.10;;;;;;5103542;28;20227;-80
2021/10/01 14:11:43;;;;;;;0.93;0.90;;;19.60;44.20;;;;;;5106363;27;20687;-78
2021/10/01 14:14:12;;;;;;;2.92;1.35;;;19.60;44.20;;;;;;5103920;28;20707;-80
2021/10/01 14:16:45;;;;;;;1.20;1.05;;;19.60;44.20;;;;;;5106094;28;20204;-79
2021/10/01 14:19:18;;;;;;;1.40;1.30;;;19.50;44.00;;;;;;5098858;28;20611;-79
2021/10/01 14:21:45;;;;;;;1.92;1.83;;;19.50;44.10;;;;;;5106758;28;20499;-79
2021/10/01 14:27:01;;;;;;;1.27;1.17;;;19.30;44.20;;;;;;5064828;28;20715;-78
2021/10/01 14:29:45;;;;;;;1.40;1.30;;;19.20;44.30;;;;;;5063151;28;20193;-80
2021/10/01 14:32:16;;;;;;;1.80;1.70;;;19.20;44.50;;;;;;5058041;28;20316;-79
2021/10/01 14:34:44;;;;;;;1.80;1.70;;;19.10;44.60;;;;;;5070107;28;20258;-80
2021/10/01 14:37:11;;;;;;;2.00;1.90;;;19.00;44.70;;;;;;5063005;28;20279;-79
2021/10/01 14:39:38;;;;;;;4.32;1.90;;;19.00;44.80;;;;;;5056170;28;20205;-78
2021/10/01 14:42:06;;;;;;;2.20;2.00;;;19.00;44.80;;;;;;5055958;28;20677;-77
2021/10/01 14:44:33;;;;;;;1.83;1.67;;;19.00;44.80;;;;;;5042907;28;20198;-77